sensor_id;sensor_type;location;lat;lon;timestamp;P1;durP1;ratioP1;P2;durP2;ratioP2
71626;SDS011;59475;52.464;13.590;2023-09-08T19:46:48;9.80;;;8.38;;
71626;SDS011;59475;52.464;13.590;2023-09-08T19:49:13;12.77;;;8.27;;
71626;SDS011;59475;52.464;13.590;2023-09-08T19:51:39;11.57;;;8.30;;
71626;SDS011;59475;52.464;13.590;2023-09-08T19:54:04;11.83;;;8.00;;
71626;SDS011;59475;52.464;13.590;2023-09-08T19:56:30;11.73;;;8.83;;
71626;SDS011;59475;52.464;13.590;2023-09-08T19:58:55;12.43;;;8.67;;
71626;SDS011;59475;52.464;13.590;2023-09-08T20:01:20;13.27;;;8.63;;
71626;SDS011;59475;52.464;13.590;2023-09-08T20:03:46;12.87;;;8.90;;
71626;SDS011;59475;52.464;13.590;2023-09-08T20:06:14;15.48;;;8.52;;
71626;SDS011;59475;52.464;13.590;2023-09-08T20:08:40;13.97;;;9.03;;
71626;SDS011;59475;52.464;13.590;2023-09-08T20:11:06;9.73;;;8.38;;
71626;SDS011;59475;52.464;13.590;2023-09-08T20:13:32;13.95;;;8.95;;
71626;SDS011;59475;52.464;13.590;2023-09-08T20:16:02;12.17;;;9.07;;
71626;SDS011;59475;52.464;13.590;2023-09-08T20:18:32;9.75;;;8.38;;
71626;SDS011;59475;52.464;13.590;2023-09-08T20:20:59;11.10;;;8.43;;
71626;SDS011;59475;52.464;13.590;2023-09-08T20:23:28;14.07;;;9.45;;
71626;SDS011;59475;52.464;13.590;2023-09-08T20:25:55;13.33;;;8.97;;
71626;SDS011;59475;52.464;13.590;2023-09-08T20:28:21;13.27;;;8.70;;
71626;SDS011;59475;52.464;13.590;2023-09-08T20:30:49;10.80;;;8.63;;
71626;SDS011;59475;52.464;13.590;2023-09-08T20:33:16;13.93;;;9.70;;
71626;SDS011;59475;52.464;13.590;2023-09-08T20:35:41;12.10;;;9.10;;
71626;SDS011;59475;52.464;13.590;2023-09-08T20:38:08;10.98;;;9.10;;
71626;SDS011;59475;52.464;13.590;2023-09-08T20:40:34;15.30;;;9.93;;
71626;SDS011;59475;52.464;13.590;2023-09-08T20:42:59;14.25;;;10.45;;
71626;SDS011;59475;52.464;13.590;2023-09-08T20:45:25;12.43;;;9.77;;
71626;SDS011;59475;52.464;13.590;2023-09-08T20:47:50;12.63;;;10.00;;
71626;SDS011;59475;52.464;13.590;2023-09-08T20:50:16;14.23;;;11.03;;
71626;SDS011;59475;52.464;13.590;2023-09-08T20:52:42;14.25;;;10.32;;
71626;SDS011;59475;52.464;13.590;2023-09-08T20:55:10;13.60;;;11.30;;
71626;SDS011;59475;52.464;13.590;2023-09-08T20:57:36;13.45;;;11.75;;
71626;SDS011;59475;52.464;13.590;2023-09-08T21:00:02;15.60;;;12.97;;
71626;SDS011;59475;52.464;13.590;2023-09-08T21:02:29;18.05;;;12.98;;
71626;SDS011;59475;52.464;13.590;2023-09-08T21:04:54;14.77;;;12.00;;
71626;SDS011;59475;52.464;13.590;2023-09-08T21:07:20;16.90;;;12.53;;
71626;SDS011;59475;52.464;13.590;2023-09-08T21:09:45;18.17;;;11.40;;
71626;SDS011;59475;52.464;13.590;2023-09-08T21:12:10;16.27;;;12.27;;
71626;SDS011;59475;52.464;13.590;2023-09-08T21:14:36;15.93;;;11.88;;
71626;SDS011;59475;52.464;13.590;2023-09-08T21:17:02;14.40;;;11.27;;
71626;SDS011;59475;52.464;13.590;2023-09-08T21:19:29;12.77;;;10.90;;
71626;SDS011;59475;52.464;13.590;2023-09-08T21:21:55;13.65;;;11.70;;
71626;SDS011;59475;52.464;13.590;2023-09-08T21:24:21;13.70;;;11.83;;
71626;SDS011;59475;52.464;13.590;2023-09-08T21:26:46;13.98;;;12.05;;
71626;SDS011;59475;52.464;13.590;2023-09-08T21:29:12;12.70;;;11.30;;
71626;SDS011;59475;52.464;13.590;2023-09-08T21:31:37;12.55;;;11.18;;
71626;SDS011;59475;52.464;13.590;2023-09-08T21:34:03;13.73;;;12.17;;
71626;SDS011;59475;52.464;13.590;2023-09-08T21:36:28;13.87;;;11.63;;
71626;SDS011;59475;52.464;13.590;2023-09-08T21:38:54;15.27;;;10.80;;
71626;SDS011;59475;52.464;13.590;2023-09-08T21:41:19;12.73;;;11.10;;
71626;SDS011;59475;52.464;13.590;2023-09-08T21:43:45;12.97;;;10.77;;
71626;SDS011;59475;52.464;13.590;2023-09-08T21:46:10;14.50;;;10.77;;
71626;SDS011;59475;52.464;13.590;2023-09-08T21:48:35;13.20;;;10.57;;
71626;SDS011;59475;52.464;13.590;2023-09-08T21:51:01;14.50;;;10.35;;
71626;SDS011;59475;52.464;13.590;2023-09-08T21:53:26;15.10;;;10.77;;
71626;SDS011;59475;52.464;13.590;2023-09-08T21:55:52;14.43;;;11.17;;
71626;SDS011;59475;52.464;13.590;2023-09-08T21:58:17;13.13;;;11.03;;
71626;SDS011;59475;52.464;13.590;2023-09-08T22:00:43;13.23;;;11.38;;
71626;SDS011;59475;52.464;13.590;2023-09-08T22:03:08;13.50;;;10.97;;
71626;SDS011;59475;52.464;13.590;2023-09-08T22:05:34;13.40;;;11.45;;
71626;SDS011;59475;52.464;13.590;2023-09-08T22:07:59;12.97;;;11.57;;
71626;SDS011;59475;52.464;13.590;2023-09-08T22:10:25;14.67;;;11.30;;
71626;SDS011;59475;52.464;13.590;2023-09-08T22:12:51;13.93;;;11.17;;
71626;SDS011;59475;52.464;13.590;2023-09-08T22:15:16;12.13;;;10.02;;
71626;SDS011;59475;52.464;13.590;2023-09-08T22:17:42;12.53;;;11.17;;
71626;SDS011;59475;52.464;13.590;2023-09-08T22:20:07;13.33;;;10.70;;
71626;SDS011;59475;52.464;13.590;2023-09-08T22:22:42;12.40;;;10.23;;
71626;SDS011;59475;52.464;13.590;2023-09-08T22:25:09;13.25;;;10.15;;
71626;SDS011;59475;52.464;13.590;2023-09-08T22:27:35;14.20;;;10.70;;
71626;SDS011;59475;52.464;13.590;2023-09-08T22:30:02;11.63;;;10.30;;
71626;SDS011;59475;52.464;13.590;2023-09-08T22:32:29;15.15;;;10.98;;
71626;SDS011;59475;52.464;13.590;2023-09-08T22:34:55;11.82;;;10.18;;
71626;SDS011;59475;52.464;13.590;2023-09-08T22:37:20;13.93;;;11.33;;
71626;SDS011;59475;52.464;13.590;2023-09-08T22:39:45;13.10;;;10.83;;
71626;SDS011;59475;52.464;13.590;2023-09-08T22:42:11;14.03;;;10.37;;
71626;SDS011;59475;52.464;13.590;2023-09-08T22:44:36;12.50;;;10.40;;
71626;SDS011;59475;52.464;13.590;2023-09-08T22:47:02;13.60;;;11.00;;
71626;SDS011;59475;52.464;13.590;2023-09-08T22:49:28;13.10;;;10.48;;
71626;SDS011;59475;52.464;13.590;2023-09-08T22:51:56;12.63;;;10.82;;
71626;SDS011;59475;52.464;13.590;2023-09-08T22:54:22;12.95;;;10.57;;
71626;SDS011;59475;52.464;13.590;2023-09-08T22:56:48;12.67;;;10.47;;
71626;SDS011;59475;52.464;13.590;2023-09-08T22:59:14;13.10;;;11.52;;
71626;SDS011;59475;52.464;13.590;2023-09-08T23:01:39;13.07;;;10.60;;
71626;SDS011;59475;52.464;13.590;2023-09-08T23:04:05;15.43;;;11.63;;
71626;SDS011;59475;52.464;13.590;2023-09-08T23:06:30;13.73;;;10.50;;
71626;SDS011;59475;52.464;13.590;2023-09-08T23:08:55;13.03;;;10.77;;
71626;SDS011;59475;52.464;13.590;2023-09-08T23:11:21;14.25;;;11.10;;
71626;SDS011;59475;52.464;13.590;2023-09-08T23:13:46;13.03;;;10.30;;
71626;SDS011;59475;52.464;13.590;2023-09-08T23:16:11;14.10;;;10.73;;
71626;SDS011;59475;52.464;13.590;2023-09-08T23:18:37;12.38;;;10.70;;
71626;SDS011;59475;52.464;13.590;2023-09-08T23:21:03;11.93;;;10.20;;
71626;SDS011;59475;52.464;13.590;2023-09-08T23:23:30;13.70;;;10.80;;
71626;SDS011;59475;52.464;13.590;2023-09-08T23:25:55;13.13;;;10.97;;
71626;SDS011;59475;52.464;13.590;2023-09-08T23:28:20;14.17;;;10.63;;
71626;SDS011;59475;52.464;13.590;2023-09-08T23:30:46;13.20;;;11.87;;
71626;SDS011;59475;52.464;13.590;2023-09-08T23:33:14;13.68;;;11.13;;
71626;SDS011;59475;52.464;13.590;2023-09-08T23:35:40;12.50;;;11.20;;
71626;SDS011;59475;52.464;13.590;2023-09-08T23:38:06;13.20;;;11.35;;
71626;SDS011;59475;52.464;13.590;2023-09-08T23:40:31;13.00;;;11.17;;
71626;SDS011;59475;52.464;13.590;2023-09-08T23:43:00;13.18;;;10.60;;
71626;SDS011;59475;52.464;13.590;2023-09-08T23:45:25;13.00;;;11.10;;
71626;SDS011;59475;52.464;13.590;2023-09-08T23:47:51;13.50;;;11.63;;
71626;SDS011;59475;52.464;13.590;2023-09-08T23:50:16;12.60;;;10.90;;
71626;SDS011;59475;52.464;13.590;2023-09-08T23:52:41;14.48;;;11.00;;
71626;SDS011;59475;52.464;13.590;2023-09-08T23:55:07;13.67;;;11.17;;
71626;SDS011;59475;52.464;13.590;2023-09-08T23:57:33;13.07;;;11.67;;
71626;SDS011;59475;52.464;13.590;2023-09-08T23:59:58;14.25;;;11.85;;
